createdAt,value
2019-03-19T00:02:16.925Z,6.73
2019-03-19T00:04:48.932Z,6.72
2019-03-19T00:07:20.969Z,6.69
2019-03-19T00:09:52.995Z,6.69
2019-03-19T00:12:25.019Z,6.67
2019-03-19T00:14:57.025Z,6.66
2019-03-19T00:17:29.269Z,6.66
2019-03-19T00:20:01.302Z,6.64
2019-03-19T00:22:33.277Z,6.63
2019-03-19T00:25:05.859Z,6.63
2019-03-19T00:27:37.862Z,6.62
2019-03-19T00:30:20.196Z,6.60
2019-03-19T00:32:52.179Z,6.62
2019-03-19T00:35:24.146Z,6.62
2019-03-19T00:37:56.195Z,6.62
2019-03-19T00:40:28.228Z,6.64
2019-03-19T00:43:00.232Z,6.65
2019-03-19T00:45:33.176Z,6.64
2019-03-19T00:48:05.286Z,6.63
2019-03-19T00:50:37.532Z,6.61
2019-03-19T00:53:12.293Z,6.61
2019-03-19T00:55:44.302Z,6.61
2019-03-19T00:58:16.353Z,6.60
2019-03-19T01:00:48.394Z,6.61
2019-03-19T01:03:21.405Z,6.59
2019-03-19T01:05:53.652Z,6.59
2019-03-19T01:08:25.632Z,6.58
2019-03-19T01:10:58.918Z,6.57
2019-03-19T01:13:30.991Z,6.58
2019-03-19T01:16:03.995Z,6.56
2019-03-19T01:18:38.368Z,6.54
2019-03-19T01:21:10.461Z,6.54
2019-03-19T01:23:42.516Z,6.52
2019-03-19T01:26:15.102Z,6.51
2019-03-19T01:28:47.180Z,6.49
2019-03-19T01:31:19.251Z,6.47
2019-03-19T01:33:51.524Z,6.46
2019-03-19T01:36:23.578Z,6.46
2019-03-19T01:38:55.645Z,6.45
2019-03-19T01:52:31.301Z,6.38
2019-03-19T01:55:03.910Z,6.41
2019-03-19T01:57:36.061Z,6.41
2019-03-19T02:00:20.966Z,6.44
2019-03-19T02:02:53.020Z,6.46
2019-03-19T02:05:25.614Z,6.47
2019-03-19T02:07:57.805Z,6.50
2019-03-19T02:10:29.788Z,6.51
2019-03-19T02:13:01.923Z,6.53
2019-03-19T02:15:34.128Z,6.54
2019-03-19T02:18:06.894Z,6.55
2019-03-19T02:20:40.157Z,6.56
2019-03-19T02:23:13.024Z,6.55
2019-03-19T02:25:45.569Z,6.54
2019-03-19T02:28:17.845Z,6.53
2019-03-19T02:30:50.056Z,6.54
2019-03-19T02:33:22.408Z,6.56
2019-03-19T02:35:54.401Z,6.57
2019-03-19T02:38:27.138Z,6.59
2019-03-19T02:40:59.316Z,6.59
2019-03-19T02:43:31.545Z,6.60
2019-03-19T02:46:04.466Z,6.60
2019-03-19T02:48:38.485Z,6.63
2019-03-19T02:51:10.487Z,6.64
2019-03-19T02:53:45.611Z,6.66
2019-03-19T02:56:31.762Z,6.67
2019-03-19T02:58:51.810Z,6.67
2019-03-19T03:01:24.778Z,6.68
2019-03-19T03:03:56.744Z,6.67
2019-03-19T03:06:29.184Z,6.67
2019-03-19T03:09:23.005Z,6.67
2019-03-19T03:15:55.456Z,6.61
2019-03-19T03:28:55.160Z,6.56
2019-03-19T03:52:31.841Z,6.30
2019-03-19T03:55:12.932Z,6.31
2019-03-19T03:57:45.110Z,6.29
2019-03-19T04:00:24.128Z,6.28
2019-03-19T04:02:56.291Z,6.27
2019-03-19T04:05:38.335Z,6.27
2019-03-19T04:31:56.323Z,6.09
2019-03-19T04:34:30.959Z,6.10
2019-03-19T04:37:05.928Z,6.09
2019-03-19T04:39:39.664Z,6.09
2019-03-19T04:42:12.177Z,6.09
2019-03-19T04:45:00.918Z,6.08
2019-03-19T04:47:37.062Z,6.09
2019-03-19T04:50:16.774Z,6.09
2019-03-19T04:52:48.904Z,6.09
2019-03-19T04:55:24.329Z,6.09
2019-03-19T04:57:56.768Z,6.08
2019-03-19T05:00:28.957Z,6.07
2019-03-19T05:03:00.939Z,6.07
2019-03-19T05:05:32.956Z,6.09
2019-03-19T05:08:05.023Z,6.11
2019-03-19T05:10:37.955Z,6.12
2019-03-19T05:13:10.016Z,6.13
2019-03-19T05:15:42.090Z,6.16
2019-03-19T05:18:14.096Z,6.18
2019-03-19T05:20:46.579Z,6.18
2019-03-19T05:23:18.671Z,6.21
2019-03-19T05:25:50.762Z,6.22
2019-03-19T05:28:23.379Z,6.24
2019-03-19T05:30:56.008Z,6.26
2019-03-19T05:33:28.660Z,6.29
2019-03-19T05:36:02.342Z,6.30
2019-03-19T05:38:34.328Z,6.30
2019-03-19T05:41:07.162Z,6.31
2019-03-19T05:43:40.852Z,6.31
2019-03-19T05:46:12.899Z,6.31
2019-03-19T05:48:46.603Z,6.33
2019-03-19T05:51:23.074Z,6.34
2019-03-19T05:54:02.331Z,6.37
2019-03-19T05:56:42.763Z,6.38
2019-03-19T05:59:18.448Z,6.40
2019-03-19T06:01:53.921Z,6.42
2019-03-19T06:04:29.987Z,6.42
2019-03-19T06:07:07.621Z,6.42
2019-03-19T06:13:15.913Z,6.45
2019-03-19T06:16:17.984Z,6.47
2019-03-19T06:19:19.714Z,6.50
2019-03-19T06:25:15.049Z,6.58
2019-03-19T06:27:59.899Z,6.61
2019-03-19T06:30:27.258Z,6.62
2019-03-19T06:33:04.267Z,6.63
2019-03-19T06:35:41.532Z,6.65
2019-03-19T06:38:19.574Z,6.66
2019-03-19T06:41:09.308Z,6.71
2019-03-19T06:50:50.177Z,6.79
2019-03-19T07:03:24.250Z,7.02
2019-03-19T07:06:06.183Z,7.06
2019-03-19T07:08:38.513Z,7.12
2019-03-19T07:11:10.591Z,7.19
2019-03-19T07:13:42.642Z,7.25
2019-03-19T07:16:14.699Z,7.31
2019-03-19T07:18:46.806Z,7.36
2019-03-19T07:21:18.872Z,7.40
2019-03-19T07:23:51.023Z,7.44
2019-03-19T07:26:23.179Z,7.48
2019-03-19T07:28:57.214Z,7.57
2019-03-19T07:31:31.101Z,7.63
2019-03-19T07:34:03.378Z,7.67
2019-03-19T07:36:48.063Z,7.72
2019-03-19T07:39:15.860Z,7.78
2019-03-19T07:41:49.389Z,7.86
2019-03-19T07:44:21.493Z,7.95
2019-03-19T07:46:59.413Z,8.04
2019-03-19T07:49:33.799Z,8.13
2019-03-19T07:52:06.010Z,8.22
2019-03-19T07:54:39.714Z,8.31
2019-03-19T07:57:12.491Z,8.36
2019-03-19T07:59:48.942Z,8.37
2019-03-19T08:02:23.624Z,8.37
2019-03-19T08:04:58.017Z,8.33
2019-03-19T08:07:30.860Z,8.34
2019-03-19T08:10:03.327Z,8.38
2019-03-19T08:12:37.169Z,8.43
2019-03-19T08:15:16.528Z,8.47
2019-03-19T08:17:49.596Z,8.46
2019-03-19T08:20:21.764Z,8.38
2019-03-19T08:22:56.407Z,8.41
2019-03-19T08:25:28.616Z,8.41
2019-03-19T08:28:00.968Z,8.38
2019-03-19T08:30:34.227Z,8.34
2019-03-19T08:33:06.320Z,8.29
2019-03-19T08:35:39.191Z,8.34
2019-03-19T08:38:11.649Z,8.46
2019-03-19T08:40:44.108Z,8.57
2019-03-19T08:43:16.432Z,8.68
2019-03-19T08:45:50.522Z,8.73
2019-03-19T08:48:22.909Z,8.79
2019-03-19T08:50:56.180Z,8.83
2019-03-19T08:53:31.502Z,8.89
2019-03-19T08:56:03.727Z,8.91
2019-03-19T08:58:35.778Z,8.87
2019-03-19T09:01:07.903Z,8.86
2019-03-19T09:03:40.134Z,8.91
2019-03-19T09:06:12.345Z,8.97
2019-03-19T09:08:44.566Z,8.96
2019-03-19T09:11:17.214Z,8.90
2019-03-19T09:14:11.156Z,8.88
2019-03-19T09:17:07.307Z,8.87
2019-03-19T09:22:51.581Z,8.82
2019-03-19T09:25:39.627Z,8.78
2019-03-19T09:28:26.889Z,8.76
2019-03-19T09:31:06.455Z,8.80
2019-03-19T09:33:42.968Z,8.85
2019-03-19T09:36:20.057Z,8.78
2019-03-19T09:38:52.219Z,8.73
2019-03-19T09:41:33.862Z,8.75
2019-03-19T09:44:04.760Z,8.74
2019-03-19T09:46:36.277Z,8.78
2019-03-19T09:49:09.147Z,8.87
2019-03-19T09:51:43.460Z,8.90
2019-03-19T09:57:31.524Z,8.97
2019-03-19T10:00:31.553Z,9.00
2019-03-19T10:03:09.361Z,9.09
2019-03-19T10:05:41.842Z,9.12
2019-03-19T10:08:17.317Z,9.11
2019-03-19T10:10:49.634Z,9.11
2019-03-19T10:13:27.616Z,9.09
2019-03-19T10:16:03.646Z,9.04
2019-03-19T10:18:50.435Z,9.10
2019-03-19T10:21:22.383Z,9.16
2019-03-19T10:24:12.888Z,9.22
2019-03-19T10:27:04.532Z,9.28
2019-03-19T10:29:52.708Z,9.20
2019-03-19T10:32:26.175Z,9.13
2019-03-19T10:34:58.495Z,9.10
2019-03-19T10:37:35.307Z,9.05
2019-03-19T10:40:16.982Z,9.07
2019-03-19T10:42:57.130Z,9.14
2019-03-19T10:45:36.205Z,9.06
2019-03-19T10:48:08.389Z,9.06
2019-03-19T10:50:40.632Z,9.05
2019-03-19T10:53:12.767Z,9.13
2019-03-19T10:55:45.028Z,9.22
2019-03-19T10:58:17.545Z,9.26
2019-03-19T11:00:49.639Z,9.26
2019-03-19T11:03:30.294Z,9.26
2019-03-19T11:06:04.303Z,9.23
2019-03-19T11:08:41.971Z,9.22
2019-03-19T11:11:15.278Z,9.27
2019-03-19T11:13:47.252Z,9.35
2019-03-19T11:16:19.309Z,9.42
2019-03-19T11:18:51.365Z,9.47
2019-03-19T11:21:25.417Z,9.48
2019-03-19T11:24:00.662Z,9.41
2019-03-19T11:26:35.025Z,9.33
2019-03-19T11:29:08.809Z,9.37
2019-03-19T11:31:45.626Z,9.41
2019-03-19T11:34:18.626Z,9.47
2019-03-19T11:37:06.438Z,9.52
2019-03-19T11:39:40.268Z,9.51
2019-03-19T11:42:30.764Z,9.53
2019-03-19T11:44:56.484Z,9.52
2019-03-19T11:47:31.549Z,9.47
2019-03-19T11:50:25.617Z,9.42
2019-03-19T11:52:58.063Z,9.48
2019-03-19T11:55:30.510Z,9.48
2019-03-19T11:58:02.601Z,9.52
2019-03-19T12:00:36.610Z,9.55
2019-03-19T12:03:15.368Z,9.61
2019-03-19T12:05:48.902Z,9.72
2019-03-19T12:08:21.336Z,9.70
2019-03-19T12:10:53.415Z,9.62
2019-03-19T12:13:25.600Z,9.59
2019-03-19T12:15:58.166Z,9.59
2019-03-19T12:18:36.665Z,9.46
2019-03-19T12:21:10.405Z,9.38
2019-03-19T12:23:46.779Z,9.38
2019-03-19T12:26:19.236Z,9.48
2019-03-19T12:28:57.403Z,9.51
2019-03-19T12:31:29.272Z,9.59
2019-03-19T12:34:01.994Z,9.64
2019-03-19T12:36:34.833Z,9.65
2019-03-19T12:39:09.762Z,9.65
2019-03-19T12:41:48.556Z,9.65
2019-03-19T12:51:26.859Z,9.65
2019-03-19T12:54:03.513Z,9.68
2019-03-19T12:56:47.086Z,9.65
2019-03-19T12:59:20.607Z,9.60
2019-03-19T13:01:53.141Z,9.57
2019-03-19T13:04:25.326Z,9.56
2019-03-19T13:06:58.423Z,9.57
2019-03-19T13:09:30.394Z,9.60
2019-03-19T13:12:02.427Z,9.64
2019-03-19T13:14:35.856Z,9.67
2019-03-19T13:17:08.927Z,9.67
2019-03-19T13:19:40.976Z,9.62
2019-03-19T13:22:14.378Z,9.61
2019-03-19T13:24:46.732Z,9.61
2019-03-19T13:27:19.195Z,9.63
2019-03-19T13:29:51.273Z,9.63
2019-03-19T13:32:23.603Z,9.59
2019-03-19T13:34:56.309Z,9.50
2019-03-19T13:37:28.370Z,9.47
2019-03-19T13:40:00.553Z,9.44
2019-03-19T13:42:32.887Z,9.37
2019-03-19T13:45:09.092Z,9.36
2019-03-19T13:47:41.090Z,9.38
2019-03-19T13:50:20.098Z,9.29
2019-03-19T13:52:52.136Z,9.26
2019-03-19T13:55:25.659Z,9.25
2019-03-19T13:57:57.721Z,9.20
2019-03-19T14:00:29.845Z,9.10
2019-03-19T14:03:01.940Z,9.09
2019-03-19T14:05:34.345Z,9.12
2019-03-19T14:08:11.531Z,9.14
2019-03-19T14:10:54.275Z,9.16
2019-03-19T14:13:35.783Z,9.14
2019-03-19T14:16:20.454Z,9.11
2019-03-19T14:18:58.954Z,9.07
2019-03-19T14:21:43.779Z,9.04
2019-03-19T14:27:25.091Z,9.03
2019-03-19T14:29:58.220Z,9.07
2019-03-19T14:32:30.712Z,9.07
2019-03-19T14:35:20.527Z,9.04
2019-03-19T14:38:15.296Z,9.05
2019-03-19T14:44:00.168Z,9.13
2019-03-19T14:46:34.158Z,9.16
2019-03-19T14:49:06.494Z,9.20
2019-03-19T14:51:39.752Z,9.19
2019-03-19T14:54:16.682Z,9.18
2019-03-19T15:00:02.446Z,9.20
2019-03-19T15:02:52.361Z,9.26
2019-03-19T15:05:27.192Z,9.32
2019-03-19T15:08:02.184Z,9.33
2019-03-19T15:10:36.359Z,9.33
2019-03-19T15:16:29.536Z,9.35
2019-03-19T15:19:09.029Z,9.40
2019-03-19T15:21:41.112Z,9.43
2019-03-19T15:24:13.585Z,9.43
2019-03-19T15:26:46.748Z,9.39
2019-03-19T15:29:42.293Z,9.37
2019-03-19T15:42:04.889Z,9.34
2019-03-19T15:44:37.002Z,9.36
2019-03-19T15:47:09.340Z,9.35
2019-03-19T15:49:41.488Z,9.35
2019-03-19T15:52:13.575Z,9.35
2019-03-19T15:54:45.604Z,9.35
2019-03-19T15:57:19.301Z,9.34
2019-03-19T15:59:51.521Z,9.31
2019-03-19T16:02:23.538Z,9.28
2019-03-19T16:04:55.910Z,9.32
2019-03-19T16:07:28.411Z,9.31
2019-03-19T16:10:05.142Z,9.32
2019-03-19T16:12:38.491Z,9.31
2019-03-19T16:15:22.453Z,9.29
2019-03-19T16:18:02.037Z,9.26
2019-03-19T16:20:39.412Z,9.22
2019-03-19T16:23:24.121Z,9.20
2019-03-19T16:26:11.751Z,9.18
2019-03-19T16:32:10.405Z,9.12
2019-03-19T16:44:46.437Z,9.24
2019-03-19T16:47:54.615Z,9.35
2019-03-19T16:50:37.238Z,9.30
2019-03-19T16:53:14.005Z,9.19
2019-03-19T16:55:55.125Z,9.08
2019-03-19T16:58:27.348Z,8.99
2019-03-19T17:01:02.484Z,8.91
2019-03-19T17:03:38.092Z,8.88
2019-03-19T17:06:10.836Z,8.84
2019-03-19T17:08:43.215Z,8.80
2019-03-19T17:11:15.898Z,8.76
2019-03-19T17:13:48.310Z,8.72
2019-03-19T17:16:23.143Z,8.68
2019-03-19T17:18:55.377Z,8.64
2019-03-19T17:21:27.510Z,8.59
2019-03-19T17:24:03.701Z,8.53
2019-03-19T17:26:36.182Z,8.48
2019-03-19T17:29:14.984Z,8.44
2019-03-19T17:31:50.617Z,8.41
2019-03-19T17:34:24.672Z,8.38
2019-03-19T17:37:02.700Z,8.35
2019-03-19T17:39:37.532Z,8.32
2019-03-19T17:42:13.555Z,8.28
2019-03-19T17:44:45.829Z,8.26
2019-03-19T17:47:18.198Z,8.22
2019-03-19T17:49:50.578Z,8.17
2019-03-19T17:52:22.737Z,8.16
2019-03-19T17:54:59.204Z,8.14
2019-03-19T17:57:31.199Z,8.11
2019-03-19T18:00:03.541Z,8.09
2019-03-19T18:02:38.055Z,8.06
2019-03-19T18:05:39.235Z,8.03
2019-03-19T18:08:28.386Z,7.99
2019-03-19T18:11:05.140Z,7.96
2019-03-19T18:13:38.391Z,7.94
2019-03-19T18:16:10.500Z,7.92
2019-03-19T18:18:42.540Z,7.90
2019-03-19T18:21:15.584Z,7.88
2019-03-19T18:23:48.575Z,7.85
2019-03-19T18:29:21.350Z,7.81
2019-03-19T18:31:53.751Z,7.78
2019-03-19T18:34:26.573Z,7.75
2019-03-19T18:36:58.980Z,7.75
2019-03-19T18:39:31.299Z,7.71
2019-03-19T18:42:03.454Z,7.69
2019-03-19T18:44:36.598Z,7.68
2019-03-19T19:04:18.590Z,7.51
2019-03-19T19:06:50.966Z,7.51
2019-03-19T19:09:23.909Z,7.50
2019-03-19T19:11:55.845Z,7.48
2019-03-19T19:14:27.887Z,7.47
2019-03-19T19:17:00.646Z,7.44
2019-03-19T19:19:32.633Z,7.44
2019-03-19T19:22:04.618Z,7.44
2019-03-19T19:24:36.970Z,7.43
2019-03-19T19:41:09.235Z,7.29
2019-03-19T19:46:52.201Z,7.27
2019-03-19T19:49:24.256Z,7.25
2019-03-19T19:55:09.554Z,7.19
2019-03-19T19:57:42.025Z,7.18
2019-03-19T20:00:23.753Z,7.18
2019-03-19T20:10:28.126Z,7.10
2019-03-19T20:13:01.074Z,7.11
2019-03-19T20:22:58.729Z,7.12
2019-03-19T20:25:31.035Z,7.09
2019-03-19T20:31:09.107Z,7.05
2019-03-19T20:33:41.168Z,7.03
2019-03-19T20:36:13.306Z,7.01
2019-03-19T21:36:17.703Z,6.56
2019-03-19T21:52:38.157Z,6.52
2019-03-19T21:55:15.935Z,6.51
2019-03-19T21:57:52.222Z,6.51
2019-03-19T22:03:41.964Z,6.48
2019-03-19T22:09:09.287Z,6.46
2019-03-19T22:11:43.557Z,6.44
2019-03-19T22:35:15.473Z,6.39
2019-03-19T22:37:47.570Z,6.39
2019-03-19T22:40:20.144Z,6.39
2019-03-19T22:42:53.114Z,6.40
2019-03-19T22:45:25.900Z,6.39
2019-03-19T22:47:58.962Z,6.39
2019-03-19T22:50:31.273Z,6.38
2019-03-19T22:53:04.867Z,6.37
2019-03-19T22:55:38.190Z,6.35
2019-03-19T22:58:10.613Z,6.34
2019-03-19T23:11:44.255Z,6.23
2019-03-19T23:14:16.482Z,6.22
2019-03-19T23:17:00.963Z,6.20
2019-03-19T23:19:59.677Z,6.18
2019-03-19T23:22:44.622Z,6.18
2019-03-19T23:25:31.776Z,6.16
2019-03-19T23:28:24.068Z,6.15
2019-03-19T23:31:03.485Z,6.14
2019-03-19T23:33:37.318Z,6.13
2019-03-19T23:36:10.495Z,6.12
2019-03-19T23:38:42.552Z,6.12
2019-03-19T23:44:30.641Z,6.09
2019-03-19T23:47:02.831Z,6.08
2019-03-19T23:49:35.064Z,6.07
2019-03-19T23:52:07.148Z,6.07
2019-03-19T23:54:39.235Z,6.06
2019-03-19T23:57:11.507Z,6.05
2019-03-19T23:59:46.228Z,6.04
